Terminal Aerodrome Forecast
Issued by NWS

Home | Current Version | Previous Version | Text Only | Print | Product List | Glossary On
Versions: 1 2 3 4 5 6 7 8 9 10 11 12 13 14 15 16 17 18 19 20
519
FTUS43 KGRB 230520
TAFCWA
TAF
KCWA 230520Z 2306/2406 27003KT P6SM SKC
     FM231000 VRB03KT 1SM BR SCT250
      TEMPO 2310/2313 1/2SM FG BKN002
     FM231300 25002KT P6SM SCT250
     FM231600 21004KT P6SM SCT030
      TEMPO 2316/2319 BKN030
     FM232200 20005KT P6SM SCT250
      AMD LTD TO CLD VIS AND WIND TIL 231100=

USA.gov is the U.S. government's official web portal to all federal, state and local government web resources and services.